Time;durP1;ratioP1;P1;durP2;ratioP2;P2;SDS_P1;SDS_P2;PMS_P1;PMS_P2;Temp;Humidity;BMP_temperature;BMP_pressure;BME280_temperature;BME280_humidity;BME280_pressure;Samples;Min_cycle;Max_cycle;Signal;HPM_P1;HPM_P2
2021/01/02 00:02:24;;;;;;;0.90;0.88;;;15.20;84.30;;;;;;5104492;28;19912;-46
2021/01/02 00:04:50;;;;;;;0.70;0.70;;;15.20;84.40;;;;;;5104945;28;20063;-44
2021/01/02 00:07:29;;;;;;;0.70;0.70;;;15.20;84.30;;;;;;5104775;28;20081;-45
2021/01/02 00:09:56;;;;;;;0.77;0.77;;;15.20;84.40;;;;;;5104681;28;20093;-46
2021/01/02 00:12:43;;;;;;;0.70;0.70;;;15.20;84.30;;;;;;5069792;28;20032;-46
2021/01/02 00:15:10;;;;;;;0.83;0.80;;;15.20;84.30;;;;;;5104597;28;20058;-44
2021/01/02 00:18:15;;;;;;;1.88;1.20;;;15.20;84.20;;;;;;5086359;28;20059;-44
2021/01/02 00:21:03;;;;;;;1.00;0.85;;;15.20;84.20;;;;;;5083020;28;20100;-45
2021/01/02 00:24:03;;;;;;;0.88;0.77;;;15.20;84.30;;;;;;5124900;28;20027;-46
2021/01/02 00:26:47;;;;;;;0.80;0.80;;;15.20;84.30;;;;;;5124887;28;20106;-45
2021/01/02 00:29:19;;;;;;;0.60;0.60;;;15.20;84.30;;;;;;5123955;28;20041;-45
2021/01/02 00:32:25;;;;;;;1.10;1.00;;;15.20;84.20;;;;;;5104022;28;20032;-45
2021/01/02 00:34:51;;;;;;;1.00;0.82;;;15.20;84.30;;;;;;5041147;28;20075;-46
2021/01/02 00:37:41;;;;;;;0.73;0.73;;;15.20;84.40;;;;;;5041298;28;20581;-45
2021/01/02 00:40:15;;;;;;;0.70;0.70;;;15.20;84.20;;;;;;5028519;28;20042;-45
2021/01/02 00:42:43;;;;;;;0.77;0.75;;;15.20;84.20;;;;;;5030053;28;20059;-44
2021/01/02 00:45:12;;;;;;;1.00;0.90;;;15.20;84.20;;;;;;5040965;28;20036;-44
2021/01/02 00:47:40;;;;;;;0.70;0.70;;;15.30;84.30;;;;;;5041288;28;20044;-45
2021/01/02 00:50:08;;;;;;;0.77;0.75;;;15.20;84.20;;;;;;5012767;28;20045;-47
2021/01/02 00:52:46;;;;;;;1.10;0.80;;;15.20;84.20;;;;;;5020994;28;20466;-45
2021/01/02 00:55:31;;;;;;;0.90;0.90;;;15.20;84.20;;;;;;5021254;28;20029;-46
2021/01/02 00:58:12;;;;;;;0.80;0.77;;;15.30;84.30;;;;;;5021306;28;20096;-45
2021/01/02 01:00:39;;;;;;;0.80;0.80;;;15.20;84.20;;;;;;5033234;28;20037;-45
2021/01/02 01:03:06;;;;;;;0.70;0.70;;;15.30;84.20;;;;;;5040752;28;20497;-45
2021/01/02 01:05:38;;;;;;;1.20;0.98;;;15.30;84.20;;;;;;5040634;28;20064;-44
2021/01/02 01:08:05;;;;;;;0.90;0.80;;;15.30;84.20;;;;;;5020650;28;20026;-44
2021/01/02 01:10:36;;;;;;;0.90;0.90;;;15.30;84.20;;;;;;5037353;28;20040;-45
2021/01/02 01:13:10;;;;;;;1.20;0.70;;;15.30;84.20;;;;;;5103454;28;20032;-45
2021/01/02 01:15:36;;;;;;;1.13;0.90;;;15.30;84.20;;;;;;5107924;28;20028;-46
2021/01/02 01:18:04;;;;;;;0.70;0.70;;;15.30;84.20;;;;;;5123817;28;20056;-45
2021/01/02 01:20:31;;;;;;;1.02;0.88;;;15.30;84.20;;;;;;5108007;28;20035;-46
2021/01/02 01:23:04;;;;;;;0.82;0.82;;;15.30;84.20;;;;;;5085022;28;20168;-44
2021/01/02 01:25:49;;;;;;;0.73;0.73;;;15.30;84.20;;;;;;5085723;28;20053;-44
2021/01/02 01:28:18;;;;;;;0.80;0.80;;;15.30;84.20;;;;;;5103560;28;20024;-44
2021/01/02 01:30:44;;;;;;;0.90;0.90;;;15.30;84.20;;;;;;5116644;28;20048;-45
2021/01/02 01:33:10;;;;;;;0.88;0.70;;;15.30;84.20;;;;;;5088688;28;20141;-45
2021/01/02 01:35:40;;;;;;;0.80;0.80;;;15.30;84.20;;;;;;5088685;28;20025;-45
2021/01/02 01:38:06;;;;;;;0.80;0.80;;;15.30;84.20;;;;;;5085504;28;20024;-44
2021/01/02 01:40:32;;;;;;;1.40;0.75;;;15.30;84.30;;;;;;5085028;28;20036;-45
2021/01/02 01:43:05;;;;;;;1.02;0.75;;;15.30;84.30;;;;;;5084622;28;20048;-45
2021/01/02 01:45:37;;;;;;;0.80;0.80;;;15.30;84.30;;;;;;5106068;28;20052;-45
2021/01/02 01:48:07;;;;;;;0.82;0.73;;;15.30;84.30;;;;;;5114057;28;20039;-45
2021/01/02 01:50:57;;;;;;;0.93;0.73;;;15.30;84.30;;;;;;5107308;28;20107;-46
2021/01/02 01:53:56;;;;;;;0.70;0.70;;;15.30;84.30;;;;;;5102776;28;20025;-44
2021/01/02 01:56:31;;;;;;;0.90;0.90;;;15.30;84.30;;;;;;5000631;28;20065;-44
2021/01/02 01:59:15;;;;;;;0.70;0.70;;;15.30;84.30;;;;;;4984510;28;20046;-45
2021/01/02 02:01:45;;;;;;;0.75;0.73;;;15.30;84.30;;;;;;4985380;28;20801;-44
2021/01/02 02:04:11;;;;;;;0.88;0.88;;;15.30;84.30;;;;;;5000493;28;20026;-45
2021/01/02 02:06:37;;;;;;;0.65;0.65;;;15.30;84.30;;;;;;5007679;28;20628;-45
2021/01/02 02:09:04;;;;;;;0.73;0.73;;;15.30;84.30;;;;;;5007218;28;20033;-45
2021/01/02 02:11:36;;;;;;;0.93;0.83;;;15.30;84.30;;;;;;5000514;28;20026;-45
2021/01/02 02:14:31;;;;;;;0.75;0.65;;;15.30;84.20;;;;;;5000351;28;20042;-44
2021/01/02 02:17:02;;;;;;;0.95;0.90;;;15.30;84.20;;;;;;5002386;28;20058;-45
2021/01/02 02:19:53;;;;;;;0.90;0.90;;;15.30;84.20;;;;;;5004645;28;20034;-45
2021/01/02 02:22:22;;;;;;;0.80;0.70;;;15.30;84.30;;;;;;5004543;28;20038;-44
2021/01/02 02:24:48;;;;;;;0.60;0.60;;;15.30;84.30;;;;;;5004225;28;20117;-45
2021/01/02 02:27:15;;;;;;;0.90;0.80;;;15.30;85.00;;;;;;5004364;28;20030;-45
2021/01/02 02:29:59;;;;;;;0.70;0.70;;;15.30;84.20;;;;;;4992702;28;20037;-44
2021/01/02 02:32:27;;;;;;;0.70;0.70;;;15.30;84.30;;;;;;5042812;28;20040;-44
2021/01/02 02:34:54;;;;;;;0.63;0.63;;;15.30;84.20;;;;;;5106668;28;20384;-45
2021/01/02 02:37:20;;;;;;;0.80;0.70;;;15.30;84.20;;;;;;5106691;28;20028;-45
2021/01/02 02:39:46;;;;;;;0.45;0.45;;;15.30;84.30;;;;;;5106715;28;20031;-47
2021/01/02 02:42:13;;;;;;;0.82;0.82;;;15.30;84.30;;;;;;5088285;28;20020;-45
2021/01/02 02:44:39;;;;;;;0.70;0.70;;;15.30;84.30;;;;;;5071586;28;20099;-45
2021/01/02 02:47:05;;;;;;;0.60;0.60;;;15.40;84.30;;;;;;5071787;28;20032;-45
2021/01/02 02:49:35;;;;;;;0.80;0.80;;;15.30;84.20;;;;;;5077860;28;20024;-44
2021/01/02 02:52:05;;;;;;;0.98;0.90;;;15.40;84.30;;;;;;5106649;28;20471;-44
2021/01/02 02:54:31;;;;;;;0.73;0.73;;;15.30;84.30;;;;;;5106198;28;20028;-45
2021/01/02 02:56:57;;;;;;;0.98;0.77;;;15.30;84.30;;;;;;5106462;28;20039;-45
2021/01/02 02:59:23;;;;;;;0.70;0.70;;;15.30;84.30;;;;;;5090437;28;20021;-44
2021/01/02 03:01:49;;;;;;;0.57;0.57;;;15.40;84.30;;;;;;5126386;28;20031;-44
2021/01/02 03:04:16;;;;;;;0.73;0.73;;;15.40;84.20;;;;;;5126545;28;20031;-45
2021/01/02 03:06:42;;;;;;;1.00;0.73;;;15.40;84.20;;;;;;5117708;28;20059;-45
2021/01/02 03:09:12;;;;;;;0.75;0.75;;;15.40;84.20;;;;;;5106219;28;20514;-46
2021/01/02 03:11:41;;;;;;;0.63;0.63;;;15.40;84.20;;;;;;5071705;28;20031;-45
2021/01/02 03:14:08;;;;;;;0.65;0.65;;;15.40;84.20;;;;;;5106091;28;20115;-46
2021/01/02 03:16:34;;;;;;;0.80;0.70;;;15.40;84.20;;;;;;5106043;28;20020;-46
2021/01/02 03:19:03;;;;;;;0.90;0.70;;;15.40;84.20;;;;;;5107331;28;20588;-46
2021/01/02 03:21:30;;;;;;;0.68;0.68;;;15.40;84.10;;;;;;5105934;28;20067;-47
2021/01/02 03:23:58;;;;;;;0.70;0.65;;;15.40;84.10;;;;;;5105991;28;20050;-46
2021/01/02 03:26:24;;;;;;;1.42;0.63;;;15.40;84.10;;;;;;5088090;28;20128;-46
2021/01/02 03:28:53;;;;;;;0.90;0.70;;;15.40;84.10;;;;;;5105771;28;20030;-46
2021/01/02 03:31:19;;;;;;;0.80;0.80;;;15.40;84.10;;;;;;5124238;28;20020;-46
2021/01/02 03:33:46;;;;;;;0.65;0.65;;;15.40;84.10;;;;;;5126457;28;20028;-47
2021/01/02 03:36:12;;;;;;;0.68;0.68;;;15.40;84.10;;;;;;5121224;28;20024;-45
2021/01/02 03:38:38;;;;;;;0.90;0.85;;;15.40;84.10;;;;;;5105876;28;20054;-46
2021/01/02 03:41:05;;;;;;;0.60;0.60;;;15.40;84.10;;;;;;5106142;28;20096;-45
2021/01/02 03:43:31;;;;;;;0.68;0.68;;;15.40;84.10;;;;;;5110354;28;20020;-46
2021/01/02 03:45:57;;;;;;;0.50;0.50;;;15.40;84.10;;;;;;5105299;28;20032;-45
2021/01/02 03:48:23;;;;;;;0.70;0.70;;;15.40;84.10;;;;;;5122659;28;20023;-46
2021/01/02 03:50:49;;;;;;;0.57;0.55;;;15.40;84.10;;;;;;5125864;28;20023;-46
2021/01/02 03:53:15;;;;;;;0.80;0.80;;;15.40;84.10;;;;;;5125951;28;20053;-47
2021/01/02 03:55:42;;;;;;;0.70;0.70;;;15.40;84.10;;;;;;5125572;28;20028;-45
2021/01/02 03:58:08;;;;;;;0.57;0.57;;;15.40;84.00;;;;;;5125914;28;20026;-45
2021/01/02 04:00:34;;;;;;;0.63;0.63;;;15.40;84.10;;;;;;5125608;28;20039;-45
2021/01/02 04:03:01;;;;;;;0.60;0.60;;;15.40;84.10;;;;;;5125726;28;20042;-45
2021/01/02 04:05:27;;;;;;;0.60;0.60;;;15.40;84.20;;;;;;5107108;28;20052;-44
2021/01/02 04:07:53;;;;;;;0.73;0.73;;;15.40;84.20;;;;;;5106634;28;20038;-47
2021/01/02 04:10:19;;;;;;;0.60;0.60;;;15.40;84.20;;;;;;5105211;28;20020;-44
2021/01/02 04:12:45;;;;;;;0.70;0.70;;;15.40;84.20;;;;;;5105072;28;20028;-45
2021/01/02 04:15:12;;;;;;;0.70;0.70;;;15.40;84.20;;;;;;5104894;28;20857;-44
2021/01/02 04:17:38;;;;;;;0.60;0.57;;;15.40;84.10;;;;;;5104427;28;20064;-45
2021/01/02 04:20:05;;;;;;;0.80;0.60;;;15.40;84.10;;;;;;5116988;28;20027;-46
2021/01/02 04:22:32;;;;;;;0.90;0.60;;;15.40;84.10;;;;;;5125312;28;20484;-46
2021/01/02 04:25:00;;;;;;;0.60;0.60;;;15.40;84.00;;;;;;5125205;28;20099;-45
2021/01/02 04:27:26;;;;;;;0.60;0.60;;;15.40;84.00;;;;;;5125024;28;20023;-45
2021/01/02 04:29:52;;;;;;;0.50;0.50;;;15.40;84.00;;;;;;5119035;28;20050;-46
2021/01/02 04:32:18;;;;;;;0.82;0.82;;;15.40;84.10;;;;;;5104810;28;20031;-46
2021/01/02 04:34:45;;;;;;;0.50;0.50;;;15.40;84.10;;;;;;5104532;28;20020;-45
2021/01/02 04:37:11;;;;;;;0.68;0.68;;;15.40;84.20;;;;;;5085919;28;20028;-45
2021/01/02 04:39:37;;;;;;;0.70;0.70;;;15.30;84.10;;;;;;5103759;28;20047;-45
2021/01/02 04:42:03;;;;;;;0.80;0.80;;;15.40;84.20;;;;;;5104526;28;20081;-44
2021/01/02 04:44:29;;;;;;;0.70;0.70;;;15.30;84.30;;;;;;5104576;28;20020;-45
2021/01/02 04:46:56;;;;;;;0.80;0.70;;;15.30;84.20;;;;;;5069536;28;20052;-45
2021/01/02 04:49:22;;;;;;;0.60;0.60;;;15.30;84.30;;;;;;5092056;28;20578;-46
2021/01/02 04:51:48;;;;;;;0.80;0.73;;;15.30;84.20;;;;;;5124943;28;20100;-45
2021/01/02 04:54:14;;;;;;;0.52;0.52;;;15.30;84.20;;;;;;5124482;28;20031;-44
2021/01/02 04:56:41;;;;;;;0.70;0.70;;;15.30;84.20;;;;;;5086725;28;20144;-48
2021/01/02 04:59:11;;;;;;;0.77;0.77;;;15.30;84.30;;;;;;5124532;28;20034;-45
2021/01/02 05:01:41;;;;;;;0.70;0.70;;;15.30;84.20;;;;;;5104049;28;20069;-45
2021/01/02 05:04:07;;;;;;;0.40;0.40;;;15.30;84.20;;;;;;5104086;28;20135;-45
2021/01/02 05:06:33;;;;;;;0.50;0.50;;;15.30;84.20;;;;;;5111873;28;20515;-46
2021/01/02 05:09:00;;;;;;;0.60;0.60;;;15.40;84.20;;;;;;5124088;28;20015;-45
2021/01/02 05:11:26;;;;;;;0.60;0.52;;;15.30;84.20;;;;;;5124453;28;20031;-45
2021/01/02 05:14:00;;;;;;;0.70;0.63;;;15.30;84.20;;;;;;5106049;28;20049;-45
2021/01/02 05:16:38;;;;;;;0.75;0.75;;;15.30;84.20;;;;;;5124195;28;20032;-45
2021/01/02 05:19:09;;;;;;;0.70;0.70;;;15.30;84.20;;;;;;5120444;28;20052;-46
2021/01/02 05:21:36;;;;;;;0.80;0.77;;;15.30;84.10;;;;;;5103866;28;20077;-45
2021/01/02 05:24:09;;;;;;;0.70;0.70;;;15.30;84.10;;;;;;5106831;28;20027;-45
2021/01/02 05:26:42;;;;;;;0.80;0.70;;;15.30;84.00;;;;;;5103769;28;20038;-45
2021/01/02 05:29:25;;;;;;;0.57;0.57;;;15.30;84.00;;;;;;5085775;28;20028;-45
2021/01/02 05:31:53;;;;;;;0.60;0.50;;;15.30;84.00;;;;;;5103257;28;20039;-45
2021/01/02 05:34:20;;;;;;;0.90;0.70;;;15.30;83.90;;;;;;5085662;28;20024;-45
2021/01/02 05:36:57;;;;;;;0.93;0.70;;;15.30;83.90;;;;;;5103587;28;20031;-44
2021/01/02 05:39:33;;;;;;;0.70;0.70;;;15.30;83.90;;;;;;5103270;28;20028;-46
2021/01/02 05:42:00;;;;;;;0.75;0.70;;;15.30;83.90;;;;;;5086614;28;20052;-45
2021/01/02 05:44:29;;;;;;;0.80;0.60;;;15.30;84.00;;;;;;5103389;28;20039;-47
2021/01/02 05:46:55;;;;;;;0.65;0.65;;;15.30;83.90;;;;;;5068872;28;20024;-45
2021/01/02 05:49:35;;;;;;;0.60;0.60;;;15.30;83.90;;;;;;5108911;28;20045;-45
2021/01/02 05:52:11;;;;;;;0.60;0.60;;;15.30;83.80;;;;;;5113846;28;20026;-45
2021/01/02 05:54:46;;;;;;;0.60;0.60;;;15.30;83.90;;;;;;5104457;28;20522;-46
2021/01/02 05:57:13;;;;;;;0.50;0.50;;;15.30;83.90;;;;;;5086271;28;20108;-44
2021/01/02 05:59:42;;;;;;;0.60;0.60;;;15.30;83.90;;;;;;5102995;28;20031;-45
2021/01/02 06:02:30;;;;;;;0.55;0.55;;;15.30;83.80;;;;;;5103084;28;20052;-45
2021/01/02 06:05:00;;;;;;;;;;;15.30;83.90;;;;;;5103636;28;20046;-45
2021/01/02 06:07:31;;;;;;;0.40;0.40;;;15.30;83.90;;;;;;5103224;28;19929;-45
2021/01/02 06:09:57;;;;;;;0.60;0.60;;;15.30;83.90;;;;;;5102754;28;20439;-46
2021/01/02 06:12:31;;;;;;;0.60;0.60;;;15.30;83.90;;;;;;5103163;28;20032;-46
2021/01/02 06:15:02;;;;;;;0.50;0.50;;;15.20;83.80;;;;;;5103127;28;20032;-44
2021/01/02 06:17:33;;;;;;;0.60;0.60;;;15.30;83.80;;;;;;5102763;28;20048;-45
2021/01/02 06:20:00;;;;;;;0.93;0.68;;;15.20;83.80;;;;;;5114030;28;20032;-46
2021/01/02 06:22:28;;;;;;;0.60;0.60;;;15.20;83.80;;;;;;5105171;28;20023;-45
2021/01/02 06:24:54;;;;;;;0.77;0.50;;;15.30;83.90;;;;;;5123279;28;20027;-45
2021/01/02 06:27:20;;;;;;;0.40;0.40;;;15.20;83.80;;;;;;5123427;28;20036;-45
2021/01/02 06:29:57;;;;;;;0.60;0.60;;;15.20;83.80;;;;;;5099292;28;20028;-45
2021/01/02 06:32:24;;;;;;;0.60;0.60;;;15.20;83.80;;;;;;5102850;28;20655;-49
2021/01/02 06:35:06;;;;;;;0.50;0.50;;;15.20;83.70;;;;;;5102813;28;20050;-45
2021/01/02 06:37:48;;;;;;;0.40;0.40;;;15.20;83.70;;;;;;5102682;28;20530;-45
2021/01/02 06:40:21;;;;;;;0.60;0.55;;;15.20;83.70;;;;;;5105808;28;20123;-49
2021/01/02 06:43:04;;;;;;;0.50;0.50;;;15.20;83.70;;;;;;5096304;28;20050;-46
2021/01/02 06:45:36;;;;;;;0.52;0.47;;;15.20;83.70;;;;;;5123240;28;20053;-45
2021/01/02 06:48:20;;;;;;;0.57;0.57;;;15.20;83.70;;;;;;5122767;28;20095;-45
2021/01/02 06:50:47;;;;;;;0.50;0.50;;;15.20;83.70;;;;;;5104772;28;20024;-44
2021/01/02 06:53:24;;;;;;;0.60;0.60;;;15.20;83.70;;;;;;5102815;28;20162;-45
2021/01/02 06:56:09;;;;;;;0.50;0.50;;;15.20;83.70;;;;;;5084945;28;20043;-45
2021/01/02 06:58:44;;;;;;;0.68;0.60;;;15.10;83.60;;;;;;5102460;28;20028;-45
2021/01/02 07:01:30;;;;;;;0.60;0.50;;;15.20;83.60;;;;;;5102225;28;20353;-50
2021/01/02 07:03:57;;;;;;;0.52;0.52;;;15.10;83.50;;;;;;5088586;28;20486;-45
2021/01/02 07:06:33;;;;;;;0.55;0.55;;;15.10;83.50;;;;;;5109839;28;20034;-45
2021/01/02 07:09:09;;;;;;;0.63;0.63;;;15.10;83.50;;;;;;5117295;28;20102;-45
2021/01/02 07:11:40;;;;;;;0.60;0.60;;;15.10;83.50;;;;;;5126613;28;20559;-45
2021/01/02 07:14:12;;;;;;;0.82;0.55;;;15.10;83.50;;;;;;5126483;28;20084;-44
2021/01/02 07:16:42;;;;;;;0.60;0.60;;;15.10;83.50;;;;;;5121855;28;20083;-45
2021/01/02 07:19:32;;;;;;;0.50;0.50;;;15.10;83.50;;;;;;5109553;28;20156;-44
2021/01/02 07:22:16;;;;;;;0.55;0.55;;;15.10;83.60;;;;;;5126206;28;20126;-45
2021/01/02 07:24:46;;;;;;;1.10;0.70;;;15.10;83.50;;;;;;5126212;28;20480;-45
2021/01/02 07:27:23;;;;;;;0.60;0.60;;;15.10;83.40;;;;;;5126231;28;20031;-44
2021/01/02 07:29:54;;;;;;;0.60;0.60;;;15.10;83.40;;;;;;5101900;28;20099;-45
2021/01/02 07:32:24;;;;;;;0.63;0.63;;;15.00;83.30;;;;;;5105609;28;20028;-44
2021/01/02 07:34:51;;;;;;;0.43;0.43;;;15.00;83.30;;;;;;5105701;28;20028;-46
2021/01/02 07:37:19;;;;;;;0.70;0.70;;;15.10;83.40;;;;;;5105791;28;20107;-45
2021/01/02 07:40:05;;;;;;;2.25;0.57;;;15.00;83.30;;;;;;5087056;28;20558;-45
2021/01/02 07:42:36;;;;;;;0.60;0.60;;;15.00;83.30;;;;;;5113393;28;20040;-45
2021/01/02 07:45:10;;;;;;;0.75;0.57;;;15.00;83.30;;;;;;5087270;28;20175;-44
2021/01/02 07:47:45;;;;;;;0.50;0.50;;;15.00;83.30;;;;;;5111909;28;20096;-44
2021/01/02 07:50:13;;;;;;;0.50;0.50;;;15.00;83.30;;;;;;5112439;28;20551;-44
2021/01/02 07:52:52;;;;;;;0.90;0.50;;;15.00;83.20;;;;;;5105513;28;20043;-45
2021/01/02 07:55:32;;;;;;;0.60;0.60;;;15.00;83.30;;;;;;5105052;28;20082;-45
2021/01/02 07:57:58;;;;;;;0.80;0.65;;;15.00;83.30;;;;;;5105040;28;20028;-44
2021/01/02 08:00:24;;;;;;;0.50;0.50;;;15.00;83.20;;;;;;5104873;28;20042;-44
2021/01/02 08:02:51;;;;;;;0.50;0.50;;;15.00;83.20;;;;;;5105285;28;20595;-44
2021/01/02 08:05:18;;;;;;;0.40;0.40;;;14.90;83.20;;;;;;5086887;28;20024;-44
2021/01/02 08:07:56;;;;;;;0.60;0.52;;;14.90;83.20;;;;;;5105231;28;20028;-46
2021/01/02 08:10:22;;;;;;;0.47;0.47;;;14.90;83.10;;;;;;5086445;28;20020;-44
2021/01/02 08:12:56;;;;;;;0.70;0.70;;;14.90;83.10;;;;;;5069986;28;20036;-44
2021/01/02 08:15:30;;;;;;;0.60;0.60;;;14.90;83.10;;;;;;5103962;28;20028;-44
2021/01/02 08:18:06;;;;;;;0.70;0.60;;;14.90;83.10;;;;;;5104656;28;20082;-44
2021/01/02 08:20:32;;;;;;;0.50;0.50;;;14.90;83.10;;;;;;5120197;28;20106;-44
2021/01/02 08:23:05;;;;;;;0.60;0.60;;;14.90;83.10;;;;;;5125279;28;20034;-44
2021/01/02 08:25:31;;;;;;;0.60;0.60;;;14.90;83.10;;;;;;5124957;28;20480;-44
2021/01/02 08:27:57;;;;;;;0.68;0.60;;;14.90;83.00;;;;;;5106565;28;20028;-45
2021/01/02 08:30:24;;;;;;;0.50;0.50;;;14.90;83.00;;;;;;5095834;28;20020;-44
2021/01/02 08:32:54;;;;;;;0.50;0.50;;;14.90;83.00;;;;;;5104504;28;20412;-45
2021/01/02 08:35:22;;;;;;;0.63;0.63;;;14.80;82.90;;;;;;5104715;28;20373;-44
2021/01/02 08:37:49;;;;;;;1.10;0.50;;;14.90;83.10;;;;;;5104541;28;20062;-44
2021/01/02 08:40:16;;;;;;;0.60;0.60;;;14.80;83.00;;;;;;5103926;28;20097;-45
2021/01/02 08:42:47;;;;;;;0.40;0.40;;;14.80;82.90;;;;;;5104382;28;20034;-44
2021/01/02 08:45:28;;;;;;;0.43;0.43;;;14.80;83.00;;;;;;5104312;28;20485;-45
2021/01/02 08:48:07;;;;;;;0.60;0.50;;;14.80;83.00;;;;;;5104126;28;20032;-45
2021/01/02 08:50:34;;;;;;;0.55;0.55;;;14.80;83.00;;;;;;5103213;28;20101;-45
2021/01/02 08:53:01;;;;;;;0.82;0.50;;;14.80;82.90;;;;;;5104236;28;20028;-44
2021/01/02 08:55:29;;;;;;;0.50;0.47;;;14.80;82.90;;;;;;5103938;28;20060;-45
2021/01/02 08:57:55;;;;;;;1.00;0.60;;;14.80;83.00;;;;;;5104005;28;20028;-44
2021/01/02 09:00:30;;;;;;;0.60;0.60;;;14.80;82.90;;;;;;5103736;28;20578;-46
2021/01/02 09:03:06;;;;;;;0.40;0.40;;;14.80;82.90;;;;;;5103711;28;20515;-45
2021/01/02 09:05:39;;;;;;;0.50;0.50;;;14.70;82.90;;;;;;5104197;28;20464;-44
2021/01/02 09:08:08;;;;;;;0.47;0.47;;;14.70;82.90;;;;;;5103737;28;20028;-44
2021/01/02 09:10:38;;;;;;;0.40;0.40;;;14.70;82.90;;;;;;5103569;28;20028;-45
2021/01/02 09:13:09;;;;;;;0.50;0.50;;;14.70;82.80;;;;;;5103568;28;20096;-45
2021/01/02 09:15:49;;;;;;;0.50;0.50;;;14.70;82.90;;;;;;5103684;28;20027;-45
2021/01/02 09:18:17;;;;;;;0.80;0.80;;;14.70;82.90;;;;;;5103262;28;20055;-45
2021/01/02 09:20:43;;;;;;;0.65;0.65;;;14.70;82.80;;;;;;5103528;28;20036;-45
2021/01/02 09:23:10;;;;;;;0.50;0.47;;;14.70;82.80;;;;;;5103005;28;20024;-44
2021/01/02 09:25:37;;;;;;;0.60;0.60;;;14.60;82.80;;;;;;5084839;28;20053;-45
2021/01/02 09:28:11;;;;;;;1.10;0.50;;;14.70;82.80;;;;;;5103297;28;20046;-44
2021/01/02 09:30:37;;;;;;;0.65;0.43;;;14.70;82.80;;;;;;5103372;28;20024;-44
2021/01/02 09:33:04;;;;;;;0.80;0.60;;;14.60;82.90;;;;;;5102925;28;20032;-44
2021/01/02 09:35:30;;;;;;;0.50;0.50;;;14.60;82.80;;;;;;5103305;28;20034;-44
2021/01/02 09:37:56;;;;;;;0.50;0.50;;;14.60;82.80;;;;;;5122488;28;20051;-44
2021/01/02 09:40:22;;;;;;;0.80;0.60;;;14.60;82.80;;;;;;5123515;28;20023;-44
2021/01/02 09:42:49;;;;;;;0.80;0.63;;;14.60;82.80;;;;;;5123274;28;20031;-44
2021/01/02 09:45:15;;;;;;;0.80;0.55;;;14.60;82.80;;;;;;5105131;28;20263;-45
2021/01/02 09:47:41;;;;;;;0.38;0.38;;;14.60;82.80;;;;;;5115875;28;20092;-44
2021/01/02 09:50:08;;;;;;;0.55;0.55;;;14.60;82.80;;;;;;5106622;28;20026;-44
2021/01/02 09:52:34;;;;;;;0.75;0.70;;;14.50;82.80;;;;;;5102727;28;20024;-45
2021/01/02 09:55:01;;;;;;;0.55;0.52;;;14.60;82.80;;;;;;5102937;28;20039;-44
2021/01/02 09:57:27;;;;;;;0.47;0.47;;;14.60;82.90;;;;;;5103026;28;20555;-44
2021/01/02 09:59:53;;;;;;;0.50;0.50;;;14.50;82.70;;;;;;5109106;28;20051;-44
2021/01/02 10:02:20;;;;;;;0.60;0.60;;;14.50;82.70;;;;;;5122904;28;20028;-44
2021/01/02 10:04:47;;;;;;;0.60;0.60;;;14.50;82.70;;;;;;5123366;28;20114;-45
2021/01/02 10:07:13;;;;;;;;;;;14.50;82.70;;;;;;5110071;28;20088;-44
2021/01/02 10:09:44;;;;;;;0.50;0.50;;;14.50;82.70;;;;;;5084607;28;19908;-45
2021/01/02 10:12:10;;;;;;;0.70;0.60;;;14.50;82.60;;;;;;5102726;28;20028;-45
2021/01/02 10:14:36;;;;;;;1.02;0.60;;;14.50;82.70;;;;;;5102841;28;20149;-44
2021/01/02 10:17:03;;;;;;;0.50;0.50;;;14.50;82.60;;;;;;5102597;28;20028;-48
2021/01/02 10:19:32;;;;;;;0.50;0.50;;;14.50;82.60;;;;;;5109828;28;20020;-44
2021/01/02 10:22:04;;;;;;;0.43;0.43;;;14.50;82.70;;;;;;5122624;28;20043;-44
2021/01/02 10:24:30;;;;;;;0.50;0.50;;;14.40;82.70;;;;;;5123201;28;20023;-45
2021/01/02 10:26:56;;;;;;;0.63;0.55;;;14.40;82.70;;;;;;5123187;28;20092;-44
2021/01/02 10:29:23;;;;;;;0.60;0.60;;;14.40;82.70;;;;;;5102644;28;20075;-46
2021/01/02 10:31:49;;;;;;;0.40;0.40;;;14.40;82.70;;;;;;5084247;28;20027;-44
2021/01/02 10:34:15;;;;;;;0.50;0.50;;;14.40;82.60;;;;;;5102385;28;20028;-46
2021/01/02 10:36:44;;;;;;;0.50;0.50;;;14.40;82.70;;;;;;5102645;28;20131;-45
2021/01/02 10:39:11;;;;;;;0.40;0.40;;;14.40;82.60;;;;;;5071566;28;20077;-44
2021/01/02 10:41:37;;;;;;;1.80;0.60;;;14.40;82.60;;;;;;5106443;28;20404;-45
2021/01/02 10:44:03;;;;;;;0.52;0.50;;;14.30;82.60;;;;;;5106201;28;20050;-44
2021/01/02 10:46:29;;;;;;;0.45;0.45;;;14.30;82.60;;;;;;5106289;28;20031;-44
2021/01/02 10:48:55;;;;;;;0.82;0.50;;;14.30;82.60;;;;;;5108582;28;20020;-46
2021/01/02 10:51:21;;;;;;;0.70;0.57;;;14.30;82.60;;;;;;5126647;28;20077;-44
2021/01/02 10:53:48;;;;;;;1.73;0.50;;;14.30;82.60;;;;;;5120117;28;20035;-45
2021/01/02 10:56:16;;;;;;;0.60;0.57;;;14.40;82.80;;;;;;5109946;28;20591;-45
2021/01/02 10:58:42;;;;;;;0.50;0.50;;;14.30;82.60;;;;;;5106165;28;20036;-45
2021/01/02 11:01:09;;;;;;;0.50;0.50;;;14.30;82.60;;;;;;5122989;28;20150;-45
2021/01/02 11:03:35;;;;;;;0.73;0.52;;;14.30;82.60;;;;;;5126236;28;20020;-44
2021/01/02 11:06:08;;;;;;;0.50;0.50;;;14.30;82.60;;;;;;5123313;28;20499;-44
2021/01/02 11:08:35;;;;;;;0.40;0.40;;;14.30;82.60;;;;;;5106072;28;20272;-44
2021/01/02 11:11:02;;;;;;;0.55;0.55;;;14.30;82.60;;;;;;5105881;28;20051;-47
2021/01/02 11:13:28;;;;;;;0.40;0.40;;;14.30;82.60;;;;;;5105655;28;20028;-44
2021/01/02 11:15:54;;;;;;;0.90;0.60;;;14.30;82.60;;;;;;5087500;28;20032;-45
2021/01/02 11:18:20;;;;;;;0.75;0.52;;;14.20;82.60;;;;;;5108508;28;20527;-44
2021/01/02 11:20:47;;;;;;;1.50;0.63;;;14.20;82.60;;;;;;5123630;28;20036;-46
2021/01/02 11:23:17;;;;;;;0.50;0.50;;;14.30;82.70;;;;;;5125960;28;20020;-44
2021/01/02 11:25:43;;;;;;;0.50;0.50;;;14.30;82.70;;;;;;5126111;28;20770;-44
2021/01/02 11:28:10;;;;;;;0.50;0.50;;;14.30;82.70;;;;;;5125845;28;20032;-45
2021/01/02 11:30:36;;;;;;;0.88;0.50;;;14.20;82.70;;;;;;5125872;28;20023;-44
2021/01/02 11:33:02;;;;;;;1.77;0.60;;;14.20;82.60;;;;;;5125544;28;20080;-44
2021/01/02 11:35:28;;;;;;;0.50;0.50;;;14.20;82.60;;;;;;5125850;28;20054;-45
2021/01/02 11:37:54;;;;;;;0.55;0.55;;;14.20;82.70;;;;;;5107504;28;20016;-45
2021/01/02 11:40:21;;;;;;;0.82;0.73;;;14.20;82.60;;;;;;5120499;28;20080;-44
2021/01/02 11:42:47;;;;;;;0.60;0.50;;;14.20;82.60;;;;;;5115482;28;20031;-44
2021/01/02 11:45:15;;;;;;;1.67;0.50;;;14.20;82.70;;;;;;5104944;28;20024;-44
2021/01/02 11:47:41;;;;;;;0.50;0.50;;;14.20;82.60;;;;;;5105010;28;20038;-45
2021/01/02 11:50:07;;;;;;;0.95;0.55;;;14.20;82.60;;;;;;5117485;28;20055;-45
2021/01/02 11:52:34;;;;;;;0.50;0.47;;;14.10;82.60;;;;;;5109943;28;20031;-45
2021/01/02 11:55:00;;;;;;;0.50;0.50;;;14.20;82.70;;;;;;5104649;28;20280;-44
2021/01/02 11:57:26;;;;;;;0.63;0.57;;;14.20;82.80;;;;;;5104996;28;20040;-45
2021/01/02 11:59:52;;;;;;;2.58;0.50;;;14.10;82.60;;;;;;5110936;28;20059;-45
2021/01/02 12:02:19;;;;;;;0.57;0.50;;;14.10;82.70;;;;;;5125248;28;20476;-45
2021/01/02 12:04:45;;;;;;;1.08;0.60;;;14.10;82.60;;;;;;5125068;28;20133;-44
2021/01/02 12:07:12;;;;;;;0.43;0.43;;;14.10;82.60;;;;;;5093868;28;20027;-45
2021/01/02 12:09:38;;;;;;;0.55;0.55;;;14.10;82.70;;;;;;5104669;28;20024;-46
2021/01/02 12:12:05;;;;;;;1.85;0.50;;;14.10;82.60;;;;;;5104661;28;20025;-45
2021/01/02 12:14:32;;;;;;;;;;;14.10;82.60;;;;;;5104876;28;20020;-45
2021/01/02 12:16:59;;;;;;;0.60;0.60;;;14.10;82.70;;;;;;5104538;28;19908;-45
2021/01/02 12:19:28;;;;;;;;;;;14.10;82.70;;;;;;5111259;28;20039;-44
2021/01/02 12:22:02;;;;;;;1.15;0.60;;;14.10;82.60;;;;;;5106434;28;19923;-44
2021/01/02 12:24:29;;;;;;;1.92;0.57;;;14.10;82.70;;;;;;5124602;28;20050;-45
2021/01/02 12:27:02;;;;;;;0.50;0.50;;;14.10;82.70;;;;;;5124890;28;20046;-45
2021/01/02 12:29:29;;;;;;;1.00;0.50;;;14.10;82.70;;;;;;5104012;28;20036;-44
2021/01/02 12:31:57;;;;;;;1.52;0.60;;;14.00;82.60;;;;;;5104378;28;20544;-44
2021/01/02 12:34:27;;;;;;;0.57;0.40;;;14.00;82.70;;;;;;5086047;28;20039;-44
2021/01/02 12:36:54;;;;;;;0.73;0.50;;;14.00;82.70;;;;;;5104246;28;20686;-46
2021/01/02 12:39:23;;;;;;;0.45;0.45;;;14.00;82.60;;;;;;5085980;28;20277;-44
2021/01/02 12:41:49;;;;;;;1.45;0.70;;;14.00;82.70;;;;;;5103794;28;20064;-45
2021/01/02 12:44:15;;;;;;;0.70;0.60;;;14.00;82.70;;;;;;5115886;28;20559;-44
2021/01/02 12:46:44;;;;;;;0.73;0.70;;;14.00;82.70;;;;;;5103985;28;20040;-44
2021/01/02 12:49:10;;;;;;;0.40;0.40;;;14.00;83.40;;;;;;5108116;28;20035;-46
2021/01/02 12:51:37;;;;;;;0.73;0.50;;;14.00;82.70;;;;;;5124263;28;20058;-45
2021/01/02 12:54:04;;;;;;;0.85;0.60;;;14.00;82.70;;;;;;5124010;28;20032;-44
2021/01/02 12:56:30;;;;;;;1.17;0.63;;;14.00;82.70;;;;;;5124236;28;20054;-44
2021/01/02 12:58:56;;;;;;;0.77;0.50;;;14.00;82.70;;;;;;5123897;28;20034;-44
2021/01/02 13:01:22;;;;;;;0.82;0.60;;;13.90;82.60;;;;;;5104492;28;20039;-44
2021/01/02 13:03:49;;;;;;;0.82;0.50;;;14.00;82.70;;;;;;5103726;28;20020;-45